sensor_id;sensor_type;location;lat;lon;timestamp;pressure;altitude;pressure_sealevel;temperature;humidity
29239;BME280;16267;48.194;11.546;2023-03-20T00:01:26;96159.19;;;10.59;93.18
29239;BME280;16267;48.194;11.546;2023-03-20T00:03:53;96163.00;;;10.58;93.29
29239;BME280;16267;48.194;11.546;2023-03-20T00:06:25;96161.13;;;10.55;93.60
29239;BME280;16267;48.194;11.546;2023-03-20T00:08:53;96154.97;;;10.58;93.08
29239;BME280;16267;48.194;11.546;2023-03-20T00:11:29;96155.75;;;10.55;92.79
29239;BME280;16267;48.194;11.546;2023-03-20T00:14:07;96160.34;;;10.58;93.22
29239;BME280;16267;48.194;11.546;2023-03-20T00:16:40;96155.38;;;10.56;92.76
29239;BME280;16267;48.194;11.546;2023-03-20T00:19:14;96154.59;;;10.56;92.02
29239;BME280;16267;48.194;11.546;2023-03-20T00:21:40;96161.88;;;10.55;91.99
29239;BME280;16267;48.194;11.546;2023-03-20T00:24:06;96154.25;;;10.54;92.36
29239;BME280;16267;48.194;11.546;2023-03-20T00:26:34;96160.78;;;10.49;92.42
29239;BME280;16267;48.194;11.546;2023-03-20T00:29:04;96155.78;;;10.51;92.43
29239;BME280;16267;48.194;11.546;2023-03-20T00:31:37;96151.22;;;10.48;91.68
29239;BME280;16267;48.194;11.546;2023-03-20T00:34:16;96149.28;;;10.48;92.62
29239;BME280;16267;48.194;11.546;2023-03-20T00:36:44;96159.66;;;10.46;92.04
29239;BME280;16267;48.194;11.546;2023-03-20T00:39:10;96153.56;;;10.42;92.47
29239;BME280;16267;48.194;11.546;2023-03-20T00:47:05;96160.50;;;10.33;93.74
29239;BME280;16267;48.194;11.546;2023-03-20T00:49:36;96157.44;;;10.31;93.46
29239;BME280;16267;48.194;11.546;2023-03-20T00:52:04;96152.50;;;10.29;93.55
29239;BME280;16267;48.194;11.546;2023-03-20T00:54:30;96162.81;;;10.31;93.69
29239;BME280;16267;48.194;11.546;2023-03-20T00:57:14;96157.84;;;10.29;93.20
29239;BME280;16267;48.194;11.546;2023-03-20T01:03:16;96160.13;;;10.31;91.52
29239;BME280;16267;48.194;11.546;2023-03-20T01:05:43;96152.13;;;10.27;91.94
29239;BME280;16267;48.194;11.546;2023-03-20T01:08:20;96154.00;;;10.26;92.40
29239;BME280;16267;48.194;11.546;2023-03-20T01:10:50;96160.53;;;10.25;92.01
29239;BME280;16267;48.194;11.546;2023-03-20T01:13:29;96156.72;;;10.23;92.43
29239;BME280;16267;48.194;11.546;2023-03-20T01:15:56;96150.19;;;10.24;92.59
29239;BME280;16267;48.194;11.546;2023-03-20T01:18:25;96161.69;;;10.24;92.20
29239;BME280;16267;48.194;11.546;2023-03-20T01:20:52;96158.25;;;10.24;92.19
29239;BME280;16267;48.194;11.546;2023-03-20T01:23:19;96154.03;;;10.23;92.23
29239;BME280;16267;48.194;11.546;2023-03-20T01:25:48;96153.63;;;10.24;92.23
29239;BME280;16267;48.194;11.546;2023-03-20T01:28:21;96154.81;;;10.23;92.02
29239;BME280;16267;48.194;11.546;2023-03-20T01:30:48;96159.41;;;10.23;92.32
29239;BME280;16267;48.194;11.546;2023-03-20T01:33:20;96160.53;;;10.22;92.54
29239;BME280;16267;48.194;11.546;2023-03-20T01:35:48;96164.78;;;10.19;92.03
29239;BME280;16267;48.194;11.546;2023-03-20T01:38:21;96165.56;;;10.20;92.53
29239;BME280;16267;48.194;11.546;2023-03-20T01:40:58;96164.78;;;10.19;92.31
29239;BME280;16267;48.194;11.546;2023-03-20T01:43:27;96164.00;;;10.19;91.99
29239;BME280;16267;48.194;11.546;2023-03-20T01:51:25;96162.88;;;10.20;90.99
29239;BME280;16267;48.194;11.546;2023-03-20T01:54:05;96161.72;;;10.21;90.71
29239;BME280;16267;48.194;11.546;2023-03-20T01:56:38;96167.06;;;10.21;90.81
29239;BME280;16267;48.194;11.546;2023-03-20T01:59:13;96159.03;;;10.21;90.47
29239;BME280;16267;48.194;11.546;2023-03-20T02:01:41;96156.34;;;10.21;90.67
29239;BME280;16267;48.194;11.546;2023-03-20T02:04:07;96149.47;;;10.20;90.59
29239;BME280;16267;48.194;11.546;2023-03-20T02:06:34;96150.22;;;10.20;90.37
29239;BME280;16267;48.194;11.546;2023-03-20T02:09:01;96148.69;;;10.19;90.47
29239;BME280;16267;48.194;11.546;2023-03-20T02:11:27;96160.94;;;10.20;90.58
29239;BME280;16267;48.194;11.546;2023-03-20T02:13:56;96154.84;;;10.20;90.88
29239;BME280;16267;48.194;11.546;2023-03-20T02:16:22;96151.34;;;10.19;90.45
29239;BME280;16267;48.194;11.546;2023-03-20T02:18:51;96155.22;;;10.18;90.37
29239;BME280;16267;48.194;11.546;2023-03-20T02:41:42;96159.81;;;10.18;89.29
29239;BME280;16267;48.194;11.546;2023-03-20T02:44:23;96157.88;;;10.18;89.00
29239;BME280;16267;48.194;11.546;2023-03-20T02:53:08;96152.56;;;10.15;89.85
29239;BME280;16267;48.194;11.546;2023-03-20T02:56:10;96155.63;;;10.13;90.05
29239;BME280;16267;48.194;11.546;2023-03-20T03:01:35;96159.47;;;10.12;89.79
29239;BME280;16267;48.194;11.546;2023-03-20T03:04:19;96154.47;;;10.11;90.03
29239;BME280;16267;48.194;11.546;2023-03-20T03:06:49;96165.22;;;10.11;89.94
29239;BME280;16267;48.194;11.546;2023-03-20T03:09:24;96160.25;;;10.09;90.43
29239;BME280;16267;48.194;11.546;2023-03-20T03:11:59;96159.50;;;10.05;90.52
29239;BME280;16267;48.194;11.546;2023-03-20T03:14:40;96154.19;;;9.94;90.88
29239;BME280;16267;48.194;11.546;2023-03-20T03:17:09;96158.75;;;9.97;91.58
29239;BME280;16267;48.194;11.546;2023-03-20T03:19:37;96162.63;;;9.93;91.20
29239;BME280;16267;48.194;11.546;2023-03-20T03:22:06;96164.19;;;9.90;92.11
29239;BME280;16267;48.194;11.546;2023-03-20T03:24:49;96159.97;;;9.86;91.91
29239;BME280;16267;48.194;11.546;2023-03-20T03:27:31;96162.28;;;9.87;92.29
29239;BME280;16267;48.194;11.546;2023-03-20T03:33:24;96163.06;;;9.84;92.29
29239;BME280;16267;48.194;11.546;2023-03-20T03:41:39;96177.59;;;9.87;92.38
29239;BME280;16267;48.194;11.546;2023-03-20T03:45:07;96176.81;;;9.86;92.22
29239;BME280;16267;48.194;11.546;2023-03-20T03:47:24;96177.59;;;9.87;91.73
29239;BME280;16267;48.194;11.546;2023-03-20T03:49:59;96174.94;;;9.87;91.52
29239;BME280;16267;48.194;11.546;2023-03-20T03:52:28;96182.97;;;9.87;91.64
29239;BME280;16267;48.194;11.546;2023-03-20T03:55:03;96181.06;;;9.87;91.74
29239;BME280;16267;48.194;11.546;2023-03-20T04:00:09;96187.94;;;9.88;91.20
29239;BME280;16267;48.194;11.546;2023-03-20T04:02:37;96185.25;;;9.88;91.00
29239;BME280;16267;48.194;11.546;2023-03-20T04:05:03;96189.09;;;9.87;90.35
29239;BME280;16267;48.194;11.546;2023-03-20T04:07:30;96186.41;;;9.87;89.83
29239;BME280;16267;48.194;11.546;2023-03-20T04:09:56;96195.59;;;9.86;90.91
29239;BME280;16267;48.194;11.546;2023-03-20T04:12:35;96193.69;;;9.83;91.06
29239;BME280;16267;48.194;11.546;2023-03-20T04:15:02;96193.31;;;9.85;91.45
29239;BME280;16267;48.194;11.546;2023-03-20T04:17:29;96205.16;;;9.83;90.98
29239;BME280;16267;48.194;11.546;2023-03-20T04:19:55;96205.56;;;9.82;91.04
29239;BME280;16267;48.194;11.546;2023-03-20T04:22:22;96201.78;;;9.76;91.14
29239;BME280;16267;48.194;11.546;2023-03-20T04:24:48;96207.91;;;9.76;90.88
29239;BME280;16267;48.194;11.546;2023-03-20T04:27:14;96208.28;;;9.71;90.29
29239;BME280;16267;48.194;11.546;2023-03-20T04:29:40;96201.78;;;9.69;90.25
29239;BME280;16267;48.194;11.546;2023-03-20T04:32:06;96202.97;;;9.60;91.13
29239;BME280;16267;48.194;11.546;2023-03-20T04:34:31;96215.63;;;9.53;91.13
29239;BME280;16267;48.194;11.546;2023-03-20T04:36:57;96213.34;;;9.48;91.38
29239;BME280;16267;48.194;11.546;2023-03-20T04:39:25;96217.19;;;9.36;91.65
29239;BME280;16267;48.194;11.546;2023-03-20T04:41:51;96216.81;;;9.37;92.06
29239;BME280;16267;48.194;11.546;2023-03-20T04:44:17;96218.31;;;9.38;91.60
29239;BME280;16267;48.194;11.546;2023-03-20T04:46:43;96217.19;;;9.36;91.82
29239;BME280;16267;48.194;11.546;2023-03-20T04:49:09;96212.97;;;9.38;92.06
29239;BME280;16267;48.194;11.546;2023-03-20T04:51:34;96224.47;;;9.35;91.65
29239;BME280;16267;48.194;11.546;2023-03-20T04:54:00;96221.03;;;9.28;91.88
29239;BME280;16267;48.194;11.546;2023-03-20T04:56:26;96228.31;;;9.27;92.55
29239;BME280;16267;48.194;11.546;2023-03-20T04:58:51;96225.25;;;9.29;93.26
29239;BME280;16267;48.194;11.546;2023-03-20T05:01:17;96227.53;;;9.30;92.84
29239;BME280;16267;48.194;11.546;2023-03-20T05:03:43;96226.41;;;9.21;93.19
29239;BME280;16267;48.194;11.546;2023-03-20T05:06:09;96237.50;;;9.08;93.21
29239;BME280;16267;48.194;11.546;2023-03-20T05:08:34;96234.47;;;9.06;94.03
29239;BME280;16267;48.194;11.546;2023-03-20T05:11:01;96230.22;;;9.09;94.01
29239;BME280;16267;48.194;11.546;2023-03-20T05:13:27;96232.16;;;9.05;93.61
29239;BME280;16267;48.194;11.546;2023-03-20T05:15:53;96234.84;;;9.12;94.12
29239;BME280;16267;48.194;11.546;2023-03-20T05:18:19;96235.59;;;9.12;93.88
29239;BME280;16267;48.194;11.546;2023-03-20T05:20:44;96240.94;;;9.02;93.84
29239;BME280;16267;48.194;11.546;2023-03-20T05:23:10;96236.72;;;9.11;94.26
29239;BME280;16267;48.194;11.546;2023-03-20T05:25:36;96237.50;;;9.05;93.43
29239;BME280;16267;48.194;11.546;2023-03-20T05:28:02;96238.63;;;9.00;93.95
29239;BME280;16267;48.194;11.546;2023-03-20T05:30:28;96238.66;;;9.04;94.34
29239;BME280;16267;48.194;11.546;2023-03-20T05:32:54;96236.75;;;8.93;93.84
29239;BME280;16267;48.194;11.546;2023-03-20T05:35:20;96246.69;;;8.93;94.56
29239;BME280;16267;48.194;11.546;2023-03-20T05:37:46;96255.88;;;8.96;94.25
29239;BME280;16267;48.194;11.546;2023-03-20T05:40:14;96250.50;;;8.99;93.71
29239;BME280;16267;48.194;11.546;2023-03-20T05:42:41;96256.63;;;9.03;94.52
29239;BME280;16267;48.194;11.546;2023-03-20T05:45:08;96255.09;;;9.02;93.53
29239;BME280;16267;48.194;11.546;2023-03-20T05:47:33;96257.00;;;8.94;94.06
29239;BME280;16267;48.194;11.546;2023-03-20T05:50:00;96266.97;;;9.01;94.48
29239;BME280;16267;48.194;11.546;2023-03-20T05:52:26;96265.81;;;9.02;94.45
29239;BME280;16267;48.194;11.546;2023-03-20T05:54:52;96266.97;;;9.01;93.76
29239;BME280;16267;48.194;11.546;2023-03-20T05:57:17;96266.94;;;8.94;94.28
29239;BME280;16267;48.194;11.546;2023-03-20T05:59:43;96275.00;;;9.01;94.53
29239;BME280;16267;48.194;11.546;2023-03-20T06:02:09;96270.38;;;8.94;93.83
29239;BME280;16267;48.194;11.546;2023-03-20T06:04:35;96278.03;;;9.03;94.62
29239;BME280;16267;48.194;11.546;2023-03-20T06:07:03;96285.31;;;9.03;94.55
29239;BME280;16267;48.194;11.546;2023-03-20T06:09:28;96279.19;;;9.06;94.24
29239;BME280;16267;48.194;11.546;2023-03-20T06:11:54;96279.19;;;9.06;94.99
29239;BME280;16267;48.194;11.546;2023-03-20T06:14:20;96285.31;;;9.03;94.46
29239;BME280;16267;48.194;11.546;2023-03-20T06:16:46;96287.22;;;9.06;95.11
29239;BME280;16267;48.194;11.546;2023-03-20T06:19:12;96290.69;;;9.06;94.71
29239;BME280;16267;48.194;11.546;2023-03-20T06:21:38;96296.03;;;9.06;95.12
29239;BME280;16267;48.194;11.546;2023-03-20T06:24:04;96292.19;;;9.07;95.45
29239;BME280;16267;48.194;11.546;2023-03-20T06:26:30;96296.00;;;8.88;95.59
29239;BME280;16267;48.194;11.546;2023-03-20T06:28:56;96301.00;;;8.93;95.65
29239;BME280;16267;48.194;11.546;2023-03-20T06:31:22;96299.06;;;8.94;95.97
29239;BME280;16267;48.194;11.546;2023-03-20T06:33:47;96313.59;;;8.89;95.89
29239;BME280;16267;48.194;11.546;2023-03-20T06:36:13;96311.31;;;8.88;95.90
29239;BME280;16267;48.194;11.546;2023-03-20T06:38:39;96314.38;;;8.93;96.13
29239;BME280;16267;48.194;11.546;2023-03-20T06:41:05;96315.91;;;8.98;96.54
29239;BME280;16267;48.194;11.546;2023-03-20T06:43:31;96311.72;;;9.01;95.37
29239;BME280;16267;48.194;11.546;2023-03-20T06:45:57;96307.09;;;8.98;94.79
29239;BME280;16267;48.194;11.546;2023-03-20T06:48:23;96305.19;;;9.05;95.90
29239;BME280;16267;48.194;11.546;2023-03-20T06:50:50;96303.69;;;9.04;95.92
29239;BME280;16267;48.194;11.546;2023-03-20T06:53:16;96306.38;;;9.01;94.70
29239;BME280;16267;48.194;11.546;2023-03-20T06:55:49;96304.44;;;9.05;96.42
29239;BME280;16267;48.194;11.546;2023-03-20T06:58:15;96308.66;;;9.13;96.42
29239;BME280;16267;48.194;11.546;2023-03-20T07:00:42;96299.09;;;9.12;94.79
29239;BME280;16267;48.194;11.546;2023-03-20T07:03:08;96311.31;;;9.02;94.93
29239;BME280;16267;48.194;11.546;2023-03-20T07:05:34;96306.38;;;9.15;96.30
29239;BME280;16267;48.194;11.546;2023-03-20T07:08:00;96307.50;;;9.25;95.98
29239;BME280;16267;48.194;11.546;2023-03-20T07:10:26;96311.72;;;9.22;94.09
29239;BME280;16267;48.194;11.546;2023-03-20T07:12:53;96314.78;;;9.24;94.70
29239;BME280;16267;48.194;11.546;2023-03-20T07:15:20;96318.97;;;9.32;95.86
29239;BME280;16267;48.194;11.546;2023-03-20T07:17:46;96318.22;;;9.35;95.37
29239;BME280;16267;48.194;11.546;2023-03-20T07:20:13;96323.56;;;9.35;94.18
29239;BME280;16267;48.194;11.546;2023-03-20T07:22:39;96317.47;;;9.35;94.42
29239;BME280;16267;48.194;11.546;2023-03-20T07:25:08;96327.78;;;9.33;94.18
29239;BME280;16267;48.194;11.546;2023-03-20T07:27:34;96328.56;;;9.26;94.42
29239;BME280;16267;48.194;11.546;2023-03-20T07:30:01;96335.06;;;9.22;94.82
29239;BME280;16267;48.194;11.546;2023-03-20T07:32:27;96338.50;;;9.26;95.31
29239;BME280;16267;48.194;11.546;2023-03-20T07:34:53;96341.56;;;9.24;94.59
29239;BME280;16267;48.194;11.546;2023-03-20T07:37:18;96342.72;;;9.34;95.37
29239;BME280;16267;48.194;11.546;2023-03-20T07:39:44;96341.56;;;9.35;94.79
29239;BME280;16267;48.194;11.546;2023-03-20T07:42:10;96347.69;;;9.35;94.84
29239;BME280;16267;48.194;11.546;2023-03-20T07:44:38;96348.84;;;9.38;94.98
29239;BME280;16267;48.194;11.546;2023-03-20T07:47:05;96356.88;;;9.42;95.60
29239;BME280;16267;48.194;11.546;2023-03-20T07:49:32;96348.47;;;9.43;94.27
29239;BME280;16267;48.194;11.546;2023-03-20T07:51:58;96343.47;;;9.49;93.89
29239;BME280;16267;48.194;11.546;2023-03-20T07:54:24;96341.19;;;9.54;94.24
29239;BME280;16267;48.194;11.546;2023-03-20T07:56:50;96343.84;;;9.58;92.29
29239;BME280;16267;48.194;11.546;2023-03-20T07:59:16;96334.69;;;9.59;91.57
29239;BME280;16267;48.194;11.546;2023-03-20T08:01:42;96331.97;;;9.66;92.70
29239;BME280;16267;48.194;11.546;2023-03-20T08:04:08;96341.53;;;9.81;93.26
29239;BME280;16267;48.194;11.546;2023-03-20T08:06:34;96342.63;;;9.95;92.89
29239;BME280;16267;48.194;11.546;2023-03-20T08:09:00;96338.41;;;10.04;92.72
29239;BME280;16267;48.194;11.546;2023-03-20T08:11:26;96351.81;;;10.08;92.76
29239;BME280;16267;48.194;11.546;2023-03-20T08:13:52;96347.22;;;10.01;89.94
29239;BME280;16267;48.194;11.546;2023-03-20T08:16:18;96347.19;;;10.16;90.88
29239;BME280;16267;48.194;11.546;2023-03-20T08:18:43;96346.41;;;10.19;91.02
29239;BME280;16267;48.194;11.546;2023-03-20T08:21:09;96349.84;;;10.26;90.68
29239;BME280;16267;48.194;11.546;2023-03-20T08:23:35;96340.28;;;10.25;88.01
29239;BME280;16267;48.194;11.546;2023-03-20T08:26:01;96344.09;;;10.35;88.68
29239;BME280;16267;48.194;11.546;2023-03-20T08:28:27;96346.78;;;10.35;88.38
29239;BME280;16267;48.194;11.546;2023-03-20T08:30:52;96336.84;;;10.29;86.04
29239;BME280;16267;48.194;11.546;2023-03-20T08:33:18;96342.16;;;10.25;86.98
29239;BME280;16267;48.194;11.546;2023-03-20T08:35:57;96333.00;;;10.26;87.63
29239;BME280;16267;48.194;11.546;2023-03-20T08:38:23;96340.66;;;10.35;87.17
29239;BME280;16267;48.194;11.546;2023-03-20T08:40:49;96338.69;;;10.42;87.68
29239;BME280;16267;48.194;11.546;2023-03-20T08:43:16;96335.66;;;10.26;85.53
29239;BME280;16267;48.194;11.546;2023-03-20T08:45:43;96338.31;;;10.40;86.78
29239;BME280;16267;48.194;11.546;2023-03-20T08:48:09;96336.78;;;10.43;87.12
29239;BME280;16267;48.194;11.546;2023-03-20T08:50:36;96334.03;;;10.57;87.49
29239;BME280;16267;48.194;11.546;2023-03-20T08:53:03;96336.31;;;10.62;85.65
29239;BME280;16267;48.194;11.546;2023-03-20T08:55:29;96336.63;;;10.71;86.50
29239;BME280;16267;48.194;11.546;2023-03-20T08:57:55;96343.13;;;10.78;85.07
29239;BME280;16267;48.194;11.546;2023-03-20T09:00:23;96343.84;;;10.85;85.87
29239;BME280;16267;48.194;11.546;2023-03-20T09:02:49;96338.13;;;10.80;84.37
29239;BME280;16267;48.194;11.546;2023-03-20T09:05:16;96340.47;;;10.70;83.31
29239;BME280;16267;48.194;11.546;2023-03-20T09:07:42;96335.91;;;10.67;82.89
29239;BME280;16267;48.194;11.546;2023-03-20T09:10:10;96334.34;;;10.70;84.19
29239;BME280;16267;48.194;11.546;2023-03-20T09:12:36;96344.34;;;10.62;82.34
29239;BME280;16267;48.194;11.546;2023-03-20T09:15:04;96341.28;;;10.64;81.02
29239;BME280;16267;48.194;11.546;2023-03-20T09:17:30;96337.72;;;10.85;83.27
29239;BME280;16267;48.194;11.546;2023-03-20T09:19:56;96344.59;;;10.86;80.93
29239;BME280;16267;48.194;11.546;2023-03-20T09:22:22;96344.09;;;11.05;82.20
29239;BME280;16267;48.194;11.546;2023-03-20T09:24:48;96353.38;;;10.93;79.85
29239;BME280;16267;48.194;11.546;2023-03-20T09:27:14;96352.66;;;10.89;80.17
29239;BME280;16267;48.194;11.546;2023-03-20T09:29:43;96353.50;;;10.76;79.09
29239;BME280;16267;48.194;11.546;2023-03-20T09:32:13;96346.50;;;10.92;80.08
29239;BME280;16267;48.194;11.546;2023-03-20T09:34:39;96352.56;;;11.04;79.44
29239;BME280;16267;48.194;11.546;2023-03-20T09:37:06;96352.84;;;11.20;81.09
29239;BME280;16267;48.194;11.546;2023-03-20T09:39:32;96354.66;;;11.30;80.62
29239;BME280;16267;48.194;11.546;2023-03-20T09:42:49;96345.81;;;11.37;79.93
29239;BME280;16267;48.194;11.546;2023-03-20T09:46:00;96353.00;;;11.51;79.99
29239;BME280;16267;48.194;11.546;2023-03-20T09:48:39;96344.44;;;11.63;80.11
29239;BME280;16267;48.194;11.546;2023-03-20T09:56:55;96342.31;;;11.89;78.08
29239;BME280;16267;48.194;11.546;2023-03-20T09:59:24;96332.28;;;11.93;76.41
29239;BME280;16267;48.194;11.546;2023-03-20T10:01:54;96329.53;;;12.00;77.49
29239;BME280;16267;48.194;11.546;2023-03-20T10:04:24;96334.09;;;12.03;76.69
29239;BME280;16267;48.194;11.546;2023-03-20T10:06:51;96336.66;;;12.14;77.60
29239;BME280;16267;48.194;11.546;2023-03-20T10:09:24;96329.25;;;12.25;77.32
29239;BME280;16267;48.194;11.546;2023-03-20T10:12:08;96335.66;;;12.35;76.69
29239;BME280;16267;48.194;11.546;2023-03-20T10:15:00;96336.72;;;12.44;75.03
29239;BME280;16267;48.194;11.546;2023-03-20T10:20:13;96325.78;;;12.55;72.07
29239;BME280;16267;48.194;11.546;2023-03-20T10:22:48;96328.03;;;12.60;72.34
29239;BME280;16267;48.194;11.546;2023-03-20T10:28:05;96324.06;;;12.72;73.63
29239;BME280;16267;48.194;11.546;2023-03-20T10:31:03;96312.81;;;12.77;70.94
29239;BME280;16267;48.194;11.546;2023-03-20T10:41:34;96315.94;;;12.76;68.03
29239;BME280;16267;48.194;11.546;2023-03-20T10:44:02;96306.56;;;12.84;70.53
29239;BME280;16267;48.194;11.546;2023-03-20T10:46:40;96306.13;;;12.89;71.14
29239;BME280;16267;48.194;11.546;2023-03-20T10:49:17;96309.88;;;12.95;70.57
29239;BME280;16267;48.194;11.546;2023-03-20T10:51:53;96297.47;;;13.01;69.78
29239;BME280;16267;48.194;11.546;2023-03-20T10:54:34;96295.06;;;13.07;69.83
29239;BME280;16267;48.194;11.546;2023-03-20T10:57:03;96293.25;;;13.24;71.22
29239;BME280;16267;48.194;11.546;2023-03-20T10:59:53;96293.03;;;13.42;71.81
29239;BME280;16267;48.194;11.546;2023-03-20T11:02:23;96286.84;;;13.41;67.33
29239;BME280;16267;48.194;11.546;2023-03-20T11:04:49;96283.66;;;13.50;67.89
29239;BME280;16267;48.194;11.546;2023-03-20T11:07:35;96290.78;;;13.36;62.90
29239;BME280;16267;48.194;11.546;2023-03-20T11:12:47;96286.66;;;13.52;63.52
29239;BME280;16267;48.194;11.546;2023-03-20T11:15:33;96286.56;;;13.59;63.44
29239;BME280;16267;48.194;11.546;2023-03-20T11:18:05;96285.53;;;13.73;63.71
29239;BME280;16267;48.194;11.546;2023-03-20T11:20:59;96282.03;;;13.76;59.21
29239;BME280;16267;48.194;11.546;2023-03-20T11:23:28;96275.13;;;13.95;64.13
29239;BME280;16267;48.194;11.546;2023-03-20T11:26:04;96277.00;;;13.98;60.26
29239;BME280;16267;48.194;11.546;2023-03-20T11:28:39;96278.56;;;13.95;58.37
29239;BME280;16267;48.194;11.546;2023-03-20T11:33:42;96288.25;;;13.93;59.63
29239;BME280;16267;48.194;11.546;2023-03-20T11:36:24;96281.13;;;13.82;59.31
29239;BME280;16267;48.194;11.546;2023-03-20T11:38:52;96283.81;;;13.82;59.20
29239;BME280;16267;48.194;11.546;2023-03-20T11:41:28;96282.41;;;13.74;57.17
29239;BME280;16267;48.194;11.546;2023-03-20T11:43:54;96285.47;;;13.76;58.97
29239;BME280;16267;48.194;11.546;2023-03-20T11:46:22;96276.34;;;13.70;58.09
29239;BME280;16267;48.194;11.546;2023-03-20T11:49:26;96271.22;;;13.76;59.94
29239;BME280;16267;48.194;11.546;2023-03-20T11:51:53;96274.22;;;13.81;59.46
29239;BME280;16267;48.194;11.546;2023-03-20T11:54:22;96263.78;;;13.83;58.49
29239;BME280;16267;48.194;11.546;2023-03-20T11:57:41;96273.25;;;13.92;59.80
29239;BME280;16267;48.194;11.546;2023-03-20T12:00:41;96272.16;;;13.89;58.59
29239;BME280;16267;48.194;11.546;2023-03-20T12:06:17;96273.09;;;13.79;58.98
29239;BME280;16267;48.194;11.546;2023-03-20T12:09:02;96276.22;;;13.77;59.27
29239;BME280;16267;48.194;11.546;2023-03-20T12:11:44;96274.47;;;13.67;57.46
29239;BME280;16267;48.194;11.546;2023-03-20T12:18:14;96265.81;;;13.56;56.15
29239;BME280;16267;48.194;11.546;2023-03-20T12:23:44;96267.50;;;13.46;56.96
29239;BME280;16267;48.194;11.546;2023-03-20T12:29:39;96262.44;;;13.28;58.76
29239;BME280;16267;48.194;11.546;2023-03-20T12:34:56;96256.50;;;13.37;58.92
29239;BME280;16267;48.194;11.546;2023-03-20T12:37:23;96252.69;;;13.34;58.63
29239;BME280;16267;48.194;11.546;2023-03-20T12:39:54;96253.41;;;13.38;59.03
29239;BME280;16267;48.194;11.546;2023-03-20T12:45:17;96244.75;;;13.24;59.99
29239;BME280;16267;48.194;11.546;2023-03-20T12:53:32;96250.28;;;13.40;60.82
29239;BME280;16267;48.194;11.546;2023-03-20T13:01:43;96252.03;;;13.50;58.74
29239;BME280;16267;48.194;11.546;2023-03-20T13:06:52;96252.50;;;13.45;59.29
29239;BME280;16267;48.194;11.546;2023-03-20T13:12:18;96253.22;;;13.26;58.52
29239;BME280;16267;48.194;11.546;2023-03-20T13:18:17;96258.94;;;13.04;58.29
29239;BME280;16267;48.194;11.546;2023-03-20T13:20:56;96246.09;;;13.12;59.55
29239;BME280;16267;48.194;11.546;2023-03-20T13:26:40;96248.53;;;13.30;59.45
29239;BME280;16267;48.194;11.546;2023-03-20T13:35:33;96244.09;;;13.16;58.42
29239;BME280;16267;48.194;11.546;2023-03-20T13:38:23;96244.72;;;13.27;59.11
29239;BME280;16267;48.194;11.546;2023-03-20T13:41:03;96229.47;;;13.41;59.80
29239;BME280;16267;48.194;11.546;2023-03-20T13:46:23;96231.34;;;13.44;56.71
29239;BME280;16267;48.194;11.546;2023-03-20T13:48:50;96223.75;;;13.38;57.01
29239;BME280;16267;48.194;11.546;2023-03-20T13:55:22;96223.06;;;13.74;58.89
29239;BME280;16267;48.194;11.546;2023-03-20T14:05:22;96218.97;;;13.46;53.44
29239;BME280;16267;48.194;11.546;2023-03-20T14:07:56;96213.94;;;13.68;54.28
29239;BME280;16267;48.194;11.546;2023-03-20T14:15:29;96209.47;;;13.61;54.15
29239;BME280;16267;48.194;11.546;2023-03-20T14:17:56;96201.22;;;13.69;54.46
29239;BME280;16267;48.194;11.546;2023-03-20T14:20:37;96204.13;;;13.58;53.80
29239;BME280;16267;48.194;11.546;2023-03-20T14:23:04;96196.94;;;13.51;53.77
29239;BME280;16267;48.194;11.546;2023-03-20T14:25:41;96195.81;;;13.49;53.69
29239;BME280;16267;48.194;11.546;2023-03-20T14:28:26;96196.53;;;13.53;54.45
29239;BME280;16267;48.194;11.546;2023-03-20T14:31:19;96193.63;;;13.64;55.54
29239;BME280;16267;48.194;11.546;2023-03-20T14:37:03;96195.25;;;13.57;54.55
29239;BME280;16267;48.194;11.546;2023-03-20T14:43:19;96189.94;;;13.54;54.04
29239;BME280;16267;48.194;11.546;2023-03-20T14:45:59;96190.84;;;13.47;54.42
29239;BME280;16267;48.194;11.546;2023-03-20T14:48:54;96192.66;;;13.54;55.13
29239;BME280;16267;48.194;11.546;2023-03-20T14:51:41;96188.25;;;13.64;55.55
29239;BME280;16267;48.194;11.546;2023-03-20T14:56:51;96189.94;;;13.74;54.44
29239;BME280;16267;48.194;11.546;2023-03-20T14:59:22;96183.72;;;13.77;53.19
29239;BME280;16267;48.194;11.546;2023-03-20T15:01:58;96184.00;;;13.82;55.20
29239;BME280;16267;48.194;11.546;2023-03-20T15:04:36;96185.88;;;13.86;54.62
29239;BME280;16267;48.194;11.546;2023-03-20T15:07:13;96188.28;;;13.80;54.14
29239;BME280;16267;48.194;11.546;2023-03-20T15:09:46;96187.59;;;13.76;54.55
29239;BME280;16267;48.194;11.546;2023-03-20T15:12:18;96176.88;;;13.72;54.94
29239;BME280;16267;48.194;11.546;2023-03-20T15:15:58;96190.09;;;13.67;55.36
29239;BME280;16267;48.194;11.546;2023-03-20T15:18:26;96175.78;;;13.70;54.98
29239;BME280;16267;48.194;11.546;2023-03-20T15:20:55;96183.59;;;13.64;54.76
29239;BME280;16267;48.194;11.546;2023-03-20T15:23:22;96179.44;;;13.59;54.42
29239;BME280;16267;48.194;11.546;2023-03-20T15:25:48;96186.22;;;13.68;55.27
29239;BME280;16267;48.194;11.546;2023-03-20T15:28:25;96183.88;;;13.70;54.84
29239;BME280;16267;48.194;11.546;2023-03-20T15:30:55;96176.13;;;13.72;55.19
29239;BME280;16267;48.194;11.546;2023-03-20T15:33:32;96175.84;;;13.66;53.17
29239;BME280;16267;48.194;11.546;2023-03-20T15:36:13;96180.06;;;13.67;54.07
29239;BME280;16267;48.194;11.546;2023-03-20T15:38:41;96179.25;;;13.70;54.57
29239;BME280;16267;48.194;11.546;2023-03-20T15:41:24;96176.53;;;13.70;55.19
29239;BME280;16267;48.194;11.546;2023-03-20T15:43:50;96178.97;;;13.65;53.81
29239;BME280;16267;48.194;11.546;2023-03-20T15:46:25;96177.50;;;13.60;54.01
29239;BME280;16267;48.194;11.546;2023-03-20T15:48:51;96180.69;;;13.55;53.99
29239;BME280;16267;48.194;11.546;2023-03-20T15:51:19;96180.34;;;13.53;53.68